Portada
METAR-TAF:

METAR-TAF

Aeropuertos :

Aeropuerto de Oujda Angads

Oujda, Marruecos

latitud: 34-47N, longitud: 001-56W, altitud: 468 m

Observación

El informe se hizo hace 48 minutos, a las 08:00 UTC
Viento 2 kt con dirección variable
Temperatura 26°C
Humedad 54%
Presión 1018 hPa
Visibilidad 10 km o más
sin nubes por debajo de 1500 m y sin presencia de cumulonimbus.

METAR: GMFO 180800Z VRB02KT CAVOK 26/16 Q1018 NOSIG

Hora: 09:48 (08:48 UTC)

Pronóstico

El informe se hizo hace 3 horas y 48 minutos, a las 05:00 UTC
Pronóstico válido del 18 a las 06 UTC al 19 a las 12 UTC
Viento 4 kt del oeste-suroeste
Visibilidad 10 km o más
Escasas nubes a una altura de 2000 ft
Temporalmente
del 18 a las 12 UTC al 18 a las 18 UTC
Viento 14 kt del norte-noroeste

TAF: GMFO 180500Z 1806/1912 24004KT 9999 FEW020 TEMPO 1812/1818 34014KT

Observaciones y pronósticos meteorológicos de más de 4000 aeropuertos (mensajes METAR y TAF).

Los puntos amarillos y rojos representan las estaciones disponibles.

Ponga el ratón en el punto deseado para ver el nombre de la estación.

Haga clic para ver las observaciones y los pronósticos meteorológicos.

Para cambiar el mapa : haga clic en los botones verdes con una cruz de color negro para hacer un zoom, en el botón verde con un guión para alejar o en las flechas verdes para mapas adyacentes.


METAR-TAF: